createdAt,value
2023-05-15T00:00:03.380Z,14.58
2023-05-15T00:02:35.963Z,14.54
2023-05-15T00:05:03.067Z,14.49
2023-05-15T00:07:29.602Z,14.44
2023-05-15T00:09:56.113Z,14.19
2023-05-15T00:12:22.642Z,14.07
2023-05-15T00:14:55.681Z,13.88
2023-05-15T00:17:24.884Z,13.67
2023-05-15T00:19:51.460Z,13.53
2023-05-15T00:22:17.906Z,13.66
2023-05-15T00:24:44.452Z,13.71
2023-05-15T00:27:10.916Z,13.81
2023-05-15T00:29:40.540Z,13.85
2023-05-15T00:32:07.267Z,13.68
2023-05-15T00:34:34.940Z,13.59
2023-05-15T00:37:01.457Z,13.49
2023-05-15T00:39:27.950Z,13.46
2023-05-15T00:41:55.839Z,13.48
2023-05-15T00:44:23.508Z,13.48
2023-05-15T00:46:51.830Z,13.50
2023-05-15T00:49:19.394Z,13.62
2023-05-15T00:51:45.858Z,13.78
2023-05-15T00:54:13.180Z,13.86
2023-05-15T00:56:41.680Z,13.82
2023-05-15T00:59:08.623Z,13.68
2023-05-15T01:01:38.574Z,13.54
2023-05-15T01:04:05.270Z,13.49
2023-05-15T01:06:32.195Z,13.57
2023-05-15T01:09:02.133Z,13.61
2023-05-15T01:11:36.186Z,13.67
2023-05-15T01:14:08.328Z,13.68
2023-05-15T01:16:41.039Z,13.63
2023-05-15T01:19:07.549Z,13.64
2023-05-15T01:21:38.069Z,13.58
2023-05-15T01:24:41.665Z,13.49
2023-05-15T01:27:18.763Z,13.53
2023-05-15T01:29:59.114Z,13.55
2023-05-15T01:32:37.863Z,13.52
2023-05-15T01:35:07.158Z,13.44
2023-05-15T01:37:42.832Z,13.39
2023-05-15T01:40:11.919Z,13.40
2023-05-15T01:42:44.281Z,13.39
2023-05-15T01:45:12.059Z,13.38
2023-05-15T01:47:44.091Z,13.37
2023-05-15T01:50:15.333Z,13.35
2023-05-15T01:52:47.509Z,13.36
2023-05-15T01:55:15.796Z,13.34
2023-05-15T01:57:43.303Z,13.28
2023-05-15T02:00:11.547Z,13.28
2023-05-15T02:02:38.415Z,13.31
2023-05-15T02:05:06.402Z,13.27
2023-05-15T02:07:33.681Z,13.12
2023-05-15T02:10:02.133Z,12.89
2023-05-15T02:12:29.112Z,12.91
2023-05-15T02:14:57.892Z,12.98
2023-05-15T02:17:24.424Z,12.99
2023-05-15T02:19:51.333Z,13.03
2023-05-15T02:22:17.839Z,13.09
2023-05-15T02:24:44.916Z,13.11
2023-05-15T02:27:48.518Z,12.91
2023-05-15T02:30:25.934Z,12.67
2023-05-15T02:33:14.657Z,12.50
2023-05-15T02:35:52.263Z,12.52
2023-05-15T02:38:29.435Z,12.29
2023-05-15T02:40:58.012Z,12.22
2023-05-15T02:43:26.234Z,12.36
2023-05-15T02:45:53.115Z,12.49
2023-05-15T02:48:20.143Z,12.49
2023-05-15T02:50:49.915Z,12.53
2023-05-15T02:53:16.490Z,12.45
2023-05-15T02:55:43.060Z,12.52
2023-05-15T02:58:09.781Z,12.52
2023-05-15T03:00:36.347Z,12.45
2023-05-15T03:03:02.902Z,12.43
2023-05-15T03:05:29.360Z,12.36
2023-05-15T03:07:57.748Z,12.44
2023-05-15T03:10:24.363Z,12.47
2023-05-15T03:12:50.993Z,12.51
2023-05-15T03:15:17.906Z,12.55
2023-05-15T03:17:44.792Z,12.57
2023-05-15T03:20:11.416Z,12.50
2023-05-15T03:22:37.940Z,12.50
2023-05-15T03:25:04.716Z,12.45
2023-05-15T03:27:31.237Z,12.46
2023-05-15T03:29:58.153Z,12.42
2023-05-15T03:32:24.654Z,12.44
2023-05-15T03:34:51.648Z,12.46
2023-05-15T03:37:18.170Z,12.38
2023-05-15T03:39:44.696Z,12.34
2023-05-15T03:42:13.875Z,12.39
2023-05-15T03:44:40.384Z,12.46
2023-05-15T03:47:07.044Z,12.48
2023-05-15T03:49:33.549Z,12.51
2023-05-15T03:52:03.065Z,12.54
2023-05-15T03:54:30.278Z,12.52
2023-05-15T03:56:57.083Z,12.46
2023-05-15T03:59:23.588Z,12.45
2023-05-15T04:02:03.587Z,12.49
2023-05-15T04:04:31.075Z,12.50
2023-05-15T04:06:57.531Z,12.51
2023-05-15T04:09:24.137Z,12.53
2023-05-15T04:11:53.862Z,12.57
2023-05-15T04:14:20.362Z,12.58
2023-05-15T04:16:46.981Z,12.59
2023-05-15T04:19:14.036Z,12.62
2023-05-15T04:21:40.571Z,12.64
2023-05-15T04:24:10.368Z,12.60
2023-05-15T04:26:36.951Z,12.40
2023-05-15T04:29:04.907Z,12.40
2023-05-15T04:31:32.132Z,12.43
2023-05-15T04:33:58.764Z,12.59
2023-05-15T04:36:25.856Z,12.87
2023-05-15T04:38:52.422Z,13.06
2023-05-15T04:41:18.911Z,13.18
2023-05-15T04:43:45.950Z,13.33
2023-05-15T04:46:12.660Z,13.44
2023-05-15T04:48:39.197Z,13.54
2023-05-15T04:51:05.786Z,13.58
2023-05-15T04:53:32.219Z,13.64
2023-05-15T04:55:59.055Z,13.77
2023-05-15T04:58:28.342Z,13.90
2023-05-15T05:00:57.652Z,14.05
2023-05-15T05:03:24.173Z,14.13
2023-05-15T05:05:50.738Z,14.17
2023-05-15T05:08:23.449Z,14.23
2023-05-15T05:10:55.505Z,14.27
2023-05-15T05:13:21.948Z,14.32
2023-05-15T05:15:48.472Z,14.30
2023-05-15T05:18:14.932Z,14.34
2023-05-15T05:20:41.407Z,14.33
2023-05-15T05:23:07.878Z,14.35
2023-05-15T05:25:34.524Z,14.38
2023-05-15T05:28:01.002Z,14.44
2023-05-15T05:30:27.531Z,14.51
2023-05-15T05:32:54.079Z,14.55
2023-05-15T05:35:20.731Z,14.55
2023-05-15T05:37:47.199Z,14.48
2023-05-15T05:40:14.035Z,14.41
2023-05-15T05:42:41.222Z,14.38
2023-05-15T05:45:08.069Z,14.43
2023-05-15T05:47:34.678Z,14.49
2023-05-15T05:50:01.227Z,14.42
2023-05-15T05:52:29.054Z,14.41
2023-05-15T05:54:55.512Z,14.33
2023-05-15T05:57:22.067Z,14.33
2023-05-15T05:59:49.786Z,14.30
2023-05-15T06:02:16.671Z,14.36
2023-05-15T06:04:43.262Z,14.44
2023-05-15T06:07:09.809Z,14.50
2023-05-15T06:09:36.259Z,14.56
2023-05-15T06:12:04.826Z,14.58
2023-05-15T06:14:31.473Z,14.62
2023-05-15T06:16:57.997Z,14.59
2023-05-15T06:19:24.582Z,14.60
2023-05-15T06:21:51.339Z,14.60
2023-05-15T06:24:17.804Z,14.69
2023-05-15T06:26:44.725Z,14.67
2023-05-15T06:29:11.314Z,14.69
2023-05-15T06:31:37.801Z,14.71
2023-05-15T06:34:04.261Z,14.77
2023-05-15T06:36:30.770Z,14.75
2023-05-15T06:38:57.256Z,14.68
2023-05-15T06:41:23.826Z,14.71
2023-05-15T06:43:50.623Z,14.70
2023-05-15T06:46:19.851Z,14.72
2023-05-15T06:48:47.650Z,14.78
2023-05-15T06:51:14.195Z,14.83
2023-05-15T06:53:42.048Z,14.82
2023-05-15T06:56:08.801Z,14.79
2023-05-15T06:58:35.302Z,14.75
2023-05-15T07:01:03.797Z,14.82
2023-05-15T07:03:30.641Z,14.78
2023-05-15T07:05:57.275Z,14.88
2023-05-15T07:08:23.830Z,15.03
2023-05-15T07:10:50.371Z,15.25
2023-05-15T07:13:20.492Z,15.42
2023-05-15T07:15:47.273Z,15.64
2023-05-15T07:18:13.784Z,15.69
2023-05-15T07:20:40.388Z,15.71
2023-05-15T07:23:06.876Z,15.76
2023-05-15T07:25:33.684Z,15.77
2023-05-15T07:28:00.207Z,15.70
2023-05-15T07:30:27.002Z,15.71
2023-05-15T07:32:53.775Z,15.69
2023-05-15T07:35:20.377Z,15.69
2023-05-15T07:37:46.932Z,15.75
2023-05-15T07:40:13.826Z,15.79
2023-05-15T07:42:40.464Z,15.73
2023-05-15T07:45:07.683Z,15.73
2023-05-15T07:47:35.628Z,15.68
2023-05-15T07:50:02.601Z,15.79
2023-05-15T07:52:29.064Z,15.92
2023-05-15T07:54:55.570Z,16.03
2023-05-15T07:57:22.116Z,16.08
2023-05-15T07:59:48.570Z,16.20
2023-05-15T08:02:15.048Z,16.22
2023-05-15T08:04:41.670Z,16.21
2023-05-15T08:07:08.158Z,16.27
2023-05-15T08:09:34.646Z,16.18
2023-05-15T08:12:21.631Z,16.29
2023-05-15T08:14:52.753Z,16.44
2023-05-15T08:17:19.567Z,16.53
2023-05-15T08:19:46.388Z,16.64
2023-05-15T08:22:12.863Z,16.74
2023-05-15T08:24:40.330Z,16.80
2023-05-15T08:27:10.906Z,17.01
2023-05-15T08:29:40.580Z,17.19
2023-05-15T08:32:08.764Z,17.39
2023-05-15T08:34:35.270Z,17.57
2023-05-15T08:37:01.836Z,17.90
2023-05-15T08:39:28.834Z,18.27
2023-05-15T08:42:19.642Z,18.38
2023-05-15T08:44:47.447Z,18.39
2023-05-15T08:47:14.969Z,18.46
2023-05-15T08:50:04.749Z,18.23
2023-05-15T08:52:33.322Z,18.50
2023-05-15T08:55:01.072Z,18.74
2023-05-15T08:57:28.300Z,18.97
2023-05-15T08:59:55.200Z,19.23
2023-05-15T09:02:21.752Z,19.37
2023-05-15T09:04:48.288Z,19.29
2023-05-15T09:07:17.304Z,19.32
2023-05-15T09:09:45.055Z,19.37
2023-05-15T09:12:18.062Z,19.48
2023-05-15T09:14:44.765Z,19.53
2023-05-15T09:17:17.308Z,19.60
2023-05-15T09:19:43.860Z,19.62
2023-05-15T09:22:20.976Z,19.69
2023-05-15T09:24:48.409Z,19.68
2023-05-15T09:27:15.186Z,19.67
2023-05-15T09:29:41.680Z,19.71
2023-05-15T09:32:15.571Z,19.74
2023-05-15T09:34:46.228Z,19.89
2023-05-15T09:37:31.047Z,19.91
2023-05-15T09:40:09.214Z,20.04
2023-05-15T09:42:36.510Z,20.09
2023-05-15T09:45:03.266Z,20.13
2023-05-15T09:47:30.079Z,20.06
2023-05-15T09:49:56.769Z,20.14
2023-05-15T09:52:23.550Z,20.30
2023-05-15T09:54:50.692Z,20.28
2023-05-15T09:57:21.743Z,20.33
2023-05-15T09:59:48.940Z,20.33
2023-05-15T10:02:32.903Z,20.54
2023-05-15T10:04:59.520Z,20.55
2023-05-15T10:07:36.350Z,20.37
2023-05-15T10:10:04.558Z,20.49
2023-05-15T10:12:32.380Z,20.42
2023-05-15T10:15:00.814Z,20.55
2023-05-15T10:17:34.470Z,20.80
2023-05-15T10:20:05.184Z,20.80
2023-05-15T10:22:36.675Z,20.85
2023-05-15T10:25:21.338Z,20.85
2023-05-15T10:27:51.306Z,20.91
2023-05-15T10:30:19.789Z,20.86
2023-05-15T10:32:47.954Z,21.06
2023-05-15T10:35:15.272Z,21.21
2023-05-15T10:37:42.403Z,21.14
2023-05-15T10:40:13.270Z,21.07
2023-05-15T10:42:42.439Z,20.99
2023-05-15T10:45:10.017Z,21.03
2023-05-15T10:47:37.576Z,21.07
2023-05-15T10:50:05.755Z,21.16
2023-05-15T10:52:33.533Z,21.33
2023-05-15T10:55:00.622Z,21.44
2023-05-15T10:57:30.195Z,21.49
2023-05-15T10:59:56.973Z,21.51
2023-05-15T11:02:30.357Z,21.46
2023-05-15T11:04:56.904Z,21.39
2023-05-15T11:07:26.955Z,21.45
2023-05-15T11:09:54.920Z,21.28
2023-05-15T11:12:21.618Z,21.30
2023-05-15T11:14:57.213Z,21.52
2023-05-15T11:17:24.480Z,21.76
2023-05-15T11:19:51.176Z,22.03
2023-05-15T11:22:32.720Z,22.06
2023-05-15T11:25:02.267Z,21.90
2023-05-15T11:27:35.485Z,22.10
2023-05-15T11:30:22.966Z,22.39
2023-05-15T11:33:04.786Z,21.94
2023-05-15T11:35:35.404Z,21.53
2023-05-15T11:38:20.167Z,21.15
2023-05-15T11:40:58.607Z,20.85
2023-05-15T11:43:27.049Z,20.65
2023-05-15T11:45:56.123Z,20.55
2023-05-15T11:48:39.077Z,20.67
2023-05-15T11:51:13.126Z,21.23
2023-05-15T11:53:40.468Z,21.01
2023-05-15T11:56:07.235Z,20.79
2023-05-15T11:58:33.710Z,21.07
2023-05-15T12:01:00.241Z,21.42
2023-05-15T12:03:33.823Z,21.97
2023-05-15T12:06:02.909Z,22.13
2023-05-15T12:08:34.456Z,21.82
2023-05-15T12:11:01.858Z,21.50
2023-05-15T12:13:29.725Z,21.37
2023-05-15T12:15:56.928Z,21.22
2023-05-15T12:18:23.947Z,21.27
2023-05-15T12:20:53.500Z,21.56
2023-05-15T12:23:22.896Z,21.57
2023-05-15T12:25:53.356Z,21.12
2023-05-15T12:28:20.030Z,20.81
2023-05-15T12:30:47.390Z,20.52
2023-05-15T12:33:14.875Z,20.35
2023-05-15T12:35:51.995Z,20.13
2023-05-15T12:38:18.725Z,19.91
2023-05-15T12:40:46.744Z,19.85
2023-05-15T12:43:14.477Z,19.74
2023-05-15T12:45:42.215Z,19.62
2023-05-15T12:48:14.933Z,19.54
2023-05-15T12:50:45.103Z,19.51
2023-05-15T12:53:13.988Z,19.46
2023-05-15T12:55:40.768Z,19.41
2023-05-15T12:58:09.523Z,19.25
2023-05-15T13:00:40.972Z,18.97
2023-05-15T13:03:10.752Z,18.69
2023-05-15T13:05:38.235Z,18.40
2023-05-15T14:41:31.256Z,17.92
2023-05-15T14:43:57.725Z,17.93
2023-05-15T14:46:24.392Z,17.87
2023-05-15T14:48:51.269Z,17.82
2023-05-15T14:51:19.679Z,17.81
2023-05-15T14:53:46.503Z,17.72
2023-05-15T14:56:13.724Z,17.65
2023-05-15T14:58:40.188Z,17.67
2023-05-15T15:01:06.684Z,17.78
2023-05-15T15:03:34.206Z,18.07
2023-05-15T15:06:01.022Z,18.31
2023-05-15T15:08:27.526Z,18.19
2023-05-15T15:10:57.158Z,18.04
2023-05-15T15:13:25.742Z,18.05
2023-05-15T15:15:55.401Z,18.02
2023-05-15T15:18:22.153Z,18.14
2023-05-15T15:20:48.926Z,18.17
2023-05-15T15:23:15.616Z,18.14
2023-05-15T15:25:42.058Z,18.16
2023-05-15T15:28:08.907Z,18.22
2023-05-15T15:30:35.448Z,18.22
2023-05-15T15:33:02.053Z,18.25
2023-05-15T15:35:28.587Z,18.08
2023-05-15T15:37:55.379Z,17.87
2023-05-15T15:40:23.528Z,17.71
2023-05-15T15:42:50.401Z,17.59
2023-05-15T15:45:17.337Z,17.50
2023-05-15T15:47:44.004Z,17.37
2023-05-15T15:50:10.801Z,17.29
2023-05-15T15:52:37.327Z,17.26
2023-05-15T15:55:04.061Z,17.22
2023-05-15T15:57:31.240Z,17.16
2023-05-15T15:59:58.274Z,17.11
2023-05-15T16:02:24.903Z,17.05
2023-05-15T16:04:51.414Z,17.01
2023-05-15T16:07:17.974Z,16.92
2023-05-15T16:09:44.484Z,16.84
2023-05-15T16:12:14.062Z,16.78
2023-05-15T16:14:40.654Z,16.66
2023-05-15T16:17:07.207Z,16.65
2023-05-15T16:19:34.959Z,16.63
2023-05-15T16:22:01.426Z,16.56
2023-05-15T16:24:27.952Z,16.61
2023-05-15T16:26:55.149Z,16.75
2023-05-15T16:29:21.698Z,16.87
2023-05-15T16:31:48.192Z,16.96
2023-05-15T16:34:14.849Z,17.15
2023-05-15T16:36:41.334Z,17.12
2023-05-15T16:39:08.023Z,17.11
2023-05-15T16:41:34.510Z,17.27
2023-05-15T16:44:01.004Z,17.44
2023-05-15T16:46:27.484Z,17.45
2023-05-15T16:48:54.048Z,17.56
2023-05-15T16:51:21.482Z,17.57
2023-05-15T16:53:48.103Z,17.50
2023-05-15T16:56:14.585Z,17.39
2023-05-15T16:58:42.131Z,17.35
2023-05-15T17:01:08.631Z,17.30
2023-05-15T17:03:35.199Z,17.18
2023-05-15T17:06:01.792Z,17.12
2023-05-15T17:08:28.349Z,17.02
2023-05-15T17:10:54.891Z,16.85
2023-05-15T17:13:21.860Z,16.80
2023-05-15T17:15:49.799Z,16.74
2023-05-15T17:18:16.586Z,16.70
2023-05-15T17:20:43.208Z,16.61
2023-05-15T17:23:09.645Z,16.54
2023-05-15T17:25:36.355Z,16.53
2023-05-15T17:28:02.983Z,16.48
2023-05-15T17:30:29.528Z,16.32
2023-05-15T17:32:56.181Z,16.23
2023-05-15T17:35:24.542Z,16.19
2023-05-15T17:37:51.890Z,16.11
2023-05-15T17:40:18.449Z,16.05
2023-05-15T17:42:44.919Z,16.02
2023-05-15T17:45:12.316Z,16.00
2023-05-15T17:47:38.866Z,15.88
2023-05-15T17:50:06.475Z,15.85
2023-05-15T17:52:35.439Z,15.86
2023-05-15T17:55:01.904Z,15.82
2023-05-15T17:57:28.563Z,15.75
2023-05-15T17:59:54.997Z,15.70
2023-05-15T18:02:21.457Z,15.66
2023-05-15T18:04:47.958Z,15.66
2023-05-15T18:07:14.412Z,15.61
2023-05-15T18:09:40.966Z,15.65
2023-05-15T18:12:07.583Z,15.69
2023-05-15T18:14:34.210Z,15.70
2023-05-15T18:17:00.724Z,15.74
2023-05-15T18:19:27.178Z,15.75
2023-05-15T18:21:53.646Z,15.78
2023-05-15T18:24:20.178Z,15.78
2023-05-15T18:26:46.760Z,15.72
2023-05-15T18:29:13.324Z,15.74
2023-05-15T18:31:39.865Z,15.71
2023-05-15T18:34:06.392Z,15.68
2023-05-15T18:36:32.961Z,15.72
2023-05-15T18:38:59.490Z,15.74
2023-05-15T18:41:27.099Z,15.74
2023-05-15T18:43:53.615Z,15.75
2023-05-15T18:46:20.298Z,15.69
2023-05-15T18:48:47.205Z,15.66
2023-05-15T18:51:14.217Z,15.65
2023-05-15T18:53:43.652Z,15.64
2023-05-15T18:56:10.729Z,15.62
2023-05-15T18:58:37.379Z,15.59
2023-05-15T19:01:04.437Z,15.60
2023-05-15T19:03:31.041Z,15.58
2023-05-15T19:05:57.826Z,15.54
2023-05-15T19:08:24.411Z,15.54
2023-05-15T19:10:51.050Z,15.63
2023-05-15T19:13:17.778Z,15.57
2023-05-15T19:15:53.883Z,15.61
2023-05-15T19:18:20.712Z,15.64
2023-05-15T19:20:50.385Z,15.61
2023-05-15T19:23:17.315Z,15.56
2023-05-15T19:25:45.036Z,15.53
2023-05-15T19:28:12.966Z,15.49
2023-05-15T19:30:39.439Z,15.47
2023-05-15T19:33:05.962Z,15.43
2023-05-15T19:35:33.239Z,15.44
2023-05-15T19:38:00.601Z,15.43
2023-05-15T19:40:27.260Z,15.45
2023-05-15T19:42:53.930Z,15.44
2023-05-15T19:45:20.469Z,15.39
2023-05-15T19:47:46.961Z,15.35
2023-05-15T19:50:13.943Z,15.34
2023-05-15T19:52:40.561Z,15.36
2023-05-15T19:55:07.436Z,15.33
2023-05-15T19:57:34.708Z,15.33
2023-05-15T20:00:01.389Z,15.27
2023-05-15T20:02:27.925Z,15.29
2023-05-15T20:04:54.491Z,15.26
2023-05-15T20:07:21.042Z,15.22
2023-05-15T20:09:47.558Z,15.25
2023-05-15T20:12:13.992Z,15.23
2023-05-15T20:14:41.980Z,15.15
2023-05-15T20:17:08.447Z,15.09
2023-05-15T20:19:34.917Z,15.07
2023-05-15T20:22:04.105Z,15.05
2023-05-15T20:24:32.307Z,14.95
2023-05-15T20:26:58.778Z,14.94
2023-05-15T20:29:29.105Z,14.82
2023-05-15T20:31:55.818Z,14.75
2023-05-15T20:34:23.296Z,14.66
2023-05-15T20:36:52.831Z,14.63
2023-05-15T20:39:20.133Z,14.57
2023-05-15T20:41:49.292Z,14.58
2023-05-15T20:44:15.784Z,14.56
2023-05-15T20:46:44.877Z,14.54
2023-05-15T20:49:11.876Z,14.51
2023-05-15T20:51:38.401Z,14.48
2023-05-15T20:54:04.862Z,14.52
2023-05-15T20:56:31.453Z,14.46
2023-05-15T20:58:59.786Z,14.36
2023-05-15T21:01:26.635Z,14.34
2023-05-15T21:03:57.760Z,14.35
2023-05-15T21:06:24.834Z,14.39
2023-05-15T21:08:55.325Z,14.40
2023-05-15T21:11:21.811Z,14.40
2023-05-15T21:13:48.438Z,14.38
2023-05-15T21:16:14.988Z,14.40
2023-05-15T21:18:41.497Z,14.37
2023-05-15T21:21:08.074Z,14.31
2023-05-15T21:23:36.538Z,14.29
2023-05-15T21:26:03.625Z,14.26
2023-05-15T21:28:30.438Z,14.22
2023-05-15T21:30:57.293Z,14.19
2023-05-15T21:33:23.888Z,14.16
2023-05-15T21:35:51.516Z,14.12
2023-05-15T21:38:18.334Z,14.10
2023-05-15T21:40:44.810Z,14.03
2023-05-15T21:43:11.280Z,13.91
2023-05-15T21:45:39.156Z,13.82
2023-05-15T21:48:09.146Z,13.74
2023-05-15T21:50:35.700Z,13.74
2023-05-15T21:53:02.327Z,13.65
2023-05-15T21:55:28.780Z,13.55
2023-05-15T21:57:55.280Z,13.49
2023-05-15T22:00:21.961Z,13.50
2023-05-15T22:02:48.626Z,13.40
2023-05-15T22:05:17.694Z,13.35
2023-05-15T22:07:44.643Z,13.33
2023-05-15T22:10:16.401Z,13.26
2023-05-15T22:12:46.848Z,13.28
2023-05-15T22:15:14.929Z,13.27
2023-05-15T22:17:41.827Z,13.17
2023-05-15T22:20:11.683Z,13.07
2023-05-15T22:22:39.370Z,13.01
2023-05-15T22:25:08.593Z,12.98
2023-05-15T22:27:35.350Z,13.03
2023-05-15T22:30:02.120Z,12.96
2023-05-15T22:32:28.650Z,12.85
2023-05-15T22:34:56.035Z,12.89
2023-05-15T22:37:22.531Z,12.86
2023-05-15T22:39:49.012Z,12.79
2023-05-15T22:42:15.468Z,12.73
2023-05-15T22:44:41.960Z,12.70
2023-05-15T22:47:08.408Z,12.75
2023-05-15T22:49:35.011Z,12.62
2023-05-15T22:52:02.000Z,12.59
2023-05-15T22:54:28.490Z,12.59
2023-05-15T22:56:54.960Z,12.54
2023-05-15T22:59:21.848Z,12.39
2023-05-15T23:01:49.369Z,12.25
2023-05-15T23:04:19.647Z,12.17
2023-05-15T23:06:46.597Z,12.08
2023-05-15T23:09:13.378Z,12.09
2023-05-15T23:11:39.828Z,11.96
2023-05-15T23:14:08.220Z,11.91
2023-05-15T23:16:34.670Z,11.83
2023-05-15T23:19:01.210Z,11.74
2023-05-15T23:21:28.459Z,11.80
2023-05-15T23:24:01.194Z,11.75
2023-05-15T23:26:31.132Z,11.63
2023-05-15T23:28:57.616Z,11.53
2023-05-15T23:31:24.242Z,11.56
2023-05-15T23:33:51.467Z,11.46
2023-05-15T23:36:18.277Z,11.51
2023-05-15T23:38:45.544Z,11.62
2023-05-15T23:41:12.059Z,11.66
2023-05-15T23:43:38.525Z,11.67
2023-05-15T23:46:09.083Z,11.59
2023-05-15T23:48:35.992Z,11.45
2023-05-15T23:51:02.526Z,11.50
2023-05-15T23:53:30.174Z,11.58
2023-05-15T23:55:56.668Z,11.51
2023-05-15T23:58:23.508Z,11.28
